Aérodrome :
LOGIN :

S'inscrire | Disclaimer

   EN    FR    IT 

 










Légende :    VFR   VFR Marginal   IFR   IFR Intensif   IFR Très Intensif
Visi : 
Plafond : 
>= 8 km
>= 3000ft
5 à 8 km
1000 à 3000 ft
1500m à 5 km
500 à 1000 ft
800 à 1500m
200 à 500 ft
< 800m
< 200 ft
Symboles :   Orages  Brouillard  Fortes neiges  Fortes précipitations  Vent > 20 kt
SIGMETs :   Divers  Orages  Givrage  Turbulence  Onde Orograph.  Cendres Volcan.







- Altitude de l'aérodrome : 659 ft
- Code IATA : LYN
- Voir les cartes d'approche


LFLY - Lyon Bron

DERNIER METAR :
  • 160030Z AUTO 00000KT CAVOK 19/14 Q1017 NOSIG

METARs EXPIRÉS :
  • 160000Z AUTO 31002KT CAVOK 20/13 Q1018 NOSIG
  • 152330Z AUTO 28003KT CAVOK 20/13 Q1018 NOSIG
  • 152300Z AUTO VRB02KT CAVOK 20/14 Q1018 NOSIG
  • 152230Z AUTO 00000KT CAVOK 21/13 Q1018 NOSIG
  • 152200Z AUTO VRB02KT CAVOK 21/13 Q1018 NOSIG

TAF TAF LFLY
Valide du 16 à 00h jusqu'au 17 à 00h UTC


152300Z 1600/1624 VRB02KT CAVOK
BECMG 1610/1612 13006KT
ATIS : +33 4 72 15 87 96
Pas de NOTAMs connus pour ce terrain.



MET'MAP, la Météo Aéronautique d'un coup d'oeil ! - Copyright ORBIFLY Décembre 2007 - Disclaimer

ORBIFLY MET'MAP TEAM :

Programmation & Développement : Alexandra Zaïnal
Conception & Développement : Baudouin d'Aumeries
Co-Programmation & Développement : Marc-Olivier Méhu
Soutien technique & logistique : Manuel Goepfert

Contact : metmap@orbifly.com




SOURCES & CREDITS :

   NOAA